createdAt,value
2022-11-05T00:00:21.631Z,9.27
2022-11-05T00:03:35.057Z,8.96
2022-11-05T00:06:21.679Z,8.94
2022-11-05T00:10:12.104Z,8.84
2022-11-05T00:16:12.039Z,9.19
2022-11-05T00:18:41.444Z,9.02
2022-11-05T00:21:31.335Z,8.99
2022-11-05T00:24:23.190Z,8.98
2022-11-05T00:31:05.661Z,8.82
2022-11-05T00:33:34.945Z,8.95
2022-11-05T00:36:09.754Z,9.27
2022-11-05T00:38:38.847Z,9.14
2022-11-05T00:41:10.941Z,9.19
2022-11-05T00:43:57.398Z,9.17
2022-11-05T00:46:28.140Z,8.98
2022-11-05T00:49:14.717Z,9.03
2022-11-05T00:51:44.201Z,9.22
2022-11-05T00:54:13.780Z,9.36
2022-11-05T00:56:43.360Z,9.20
2022-11-05T00:59:13.255Z,9.60
2022-11-05T01:01:45.087Z,9.18
2022-11-05T01:04:14.553Z,9.36
2022-11-05T01:06:44.172Z,9.13
2022-11-05T01:09:13.364Z,9.29
2022-11-05T01:11:43.107Z,9.43
2022-11-05T01:14:14.287Z,9.56
2022-11-05T01:16:45.815Z,9.39
2022-11-05T01:19:15.288Z,9.32
2022-11-05T01:21:44.498Z,9.33
2022-11-05T01:24:14.198Z,9.27
2022-11-05T01:26:43.541Z,9.24
2022-11-05T01:29:13.256Z,9.47
2022-11-05T01:31:42.816Z,9.73
2022-11-05T01:34:14.530Z,9.57
2022-11-05T01:41:17.943Z,9.60
2022-11-05T01:44:29.435Z,9.80
2022-11-05T01:46:58.722Z,9.61
2022-11-05T01:49:30.505Z,9.53
2022-11-05T01:52:30.990Z,9.52
2022-11-05T01:55:00.772Z,9.42
2022-11-05T01:57:31.451Z,9.66
2022-11-05T02:00:01.414Z,9.95
2022-11-05T02:02:30.864Z,9.57
2022-11-05T02:05:03.548Z,9.72
2022-11-05T02:07:33.057Z,9.84
2022-11-05T02:10:05.251Z,9.69
2022-11-05T02:12:35.323Z,9.56
2022-11-05T02:15:04.726Z,9.95
2022-11-05T02:18:03.486Z,9.80
2022-11-05T02:20:42.243Z,9.81
2022-11-05T02:28:03.761Z,9.37
2022-11-05T02:31:18.269Z,9.20
2022-11-05T02:33:57.196Z,9.27
2022-11-05T02:36:34.742Z,9.26
2022-11-05T02:39:12.513Z,9.59
2022-11-05T02:41:47.389Z,9.64
2022-11-05T02:53:43.059Z,9.69
2022-11-05T02:56:18.398Z,9.52
2022-11-05T02:58:48.281Z,9.67
2022-11-05T03:01:17.725Z,9.61
2022-11-05T03:03:49.747Z,9.59
2022-11-05T03:06:39.724Z,9.45
2022-11-05T03:09:22.087Z,9.11
2022-11-05T03:11:58.148Z,9.27
2022-11-05T03:19:26.397Z,8.72
2022-11-05T03:21:58.432Z,8.59
2022-11-05T03:24:31.460Z,8.60
2022-11-05T03:27:04.056Z,8.83
2022-11-05T03:29:36.227Z,8.62
2022-11-05T03:32:06.749Z,8.46
2022-11-05T03:34:38.506Z,8.52
2022-11-05T03:37:07.952Z,8.57
2022-11-05T03:39:40.619Z,8.68
2022-11-05T03:42:12.224Z,8.69
2022-11-05T03:44:44.673Z,8.91
2022-11-05T03:47:16.915Z,8.86
2022-11-05T03:49:54.194Z,8.68
2022-11-05T03:52:26.709Z,8.76
2022-11-05T03:54:57.924Z,8.31
2022-11-05T03:57:30.895Z,8.36
2022-11-05T04:00:00.211Z,8.80
2022-11-05T04:02:30.274Z,8.88
2022-11-05T04:04:59.514Z,8.86
2022-11-05T04:11:54.344Z,9.24
2022-11-05T04:14:23.499Z,9.58
2022-11-05T04:17:13.015Z,9.61
2022-11-05T04:26:57.086Z,9.53
2022-11-05T04:29:43.645Z,9.82
2022-11-05T04:32:12.624Z,9.55
2022-11-05T04:34:41.583Z,9.69
2022-11-05T04:37:10.993Z,9.92
2022-11-05T04:39:40.311Z,9.77
2022-11-05T04:42:10.742Z,9.61
2022-11-05T04:44:40.145Z,9.90
2022-11-05T04:47:09.166Z,9.73
2022-11-05T04:49:38.271Z,9.50
2022-11-05T04:52:07.728Z,9.37
2022-11-05T04:54:36.923Z,9.64
2022-11-05T04:57:06.360Z,9.62
2022-11-05T04:59:36.921Z,9.82
2022-11-05T05:02:06.933Z,9.93
2022-11-05T05:04:38.900Z,9.75
2022-11-05T05:07:08.251Z,9.73
2022-11-05T05:10:33.547Z,9.62
2022-11-05T05:13:02.757Z,9.46
2022-11-05T05:15:33.644Z,9.81
2022-11-05T05:18:03.299Z,9.77
2022-11-05T05:20:49.637Z,9.44
2022-11-05T05:23:18.774Z,9.74
2022-11-05T05:25:47.735Z,9.58
2022-11-05T05:28:17.222Z,9.42
2022-11-05T05:30:47.980Z,9.65
2022-11-05T05:33:17.160Z,9.52
2022-11-05T05:35:46.326Z,9.67
2022-11-05T05:38:15.556Z,9.77
2022-11-05T05:41:10.789Z,9.77
2022-11-05T05:43:40.467Z,9.72
2022-11-05T05:46:12.971Z,9.62
2022-11-05T05:48:42.103Z,9.51
2022-11-05T05:51:12.872Z,9.66
2022-11-05T05:53:42.113Z,9.42
2022-11-05T05:56:15.111Z,9.55
2022-11-05T05:58:44.449Z,9.27
2022-11-05T06:01:19.189Z,9.57
2022-11-05T06:03:49.686Z,9.45
2022-11-05T06:06:21.274Z,9.39
2022-11-05T06:08:50.731Z,9.22
2022-11-05T06:11:19.635Z,9.15
2022-11-05T06:13:48.416Z,9.31
2022-11-05T06:16:20.408Z,9.02
2022-11-05T06:24:23.791Z,9.09
2022-11-05T06:27:43.904Z,9.23
2022-11-05T06:30:13.470Z,9.23
2022-11-05T06:32:45.134Z,9.36
2022-11-05T06:35:14.389Z,9.51
2022-11-05T06:37:45.318Z,9.56
2022-11-05T06:40:17.492Z,9.58
2022-11-05T06:42:48.342Z,9.58
2022-11-05T06:45:18.382Z,9.52
2022-11-05T06:47:57.181Z,9.61
2022-11-05T07:00:56.110Z,10.16
2022-11-05T07:07:56.917Z,10.11
2022-11-05T07:10:25.536Z,10.23
2022-11-05T07:12:55.156Z,10.22
2022-11-05T07:15:23.874Z,10.29
2022-11-05T07:17:52.751Z,10.40
2022-11-05T07:20:21.687Z,10.70
2022-11-05T07:22:53.037Z,10.62
2022-11-05T07:25:23.079Z,10.67
2022-11-05T07:27:52.946Z,10.77
2022-11-05T07:30:22.278Z,10.84
2022-11-05T07:33:17.182Z,10.94
2022-11-05T07:35:47.776Z,11.19
2022-11-05T08:13:02.859Z,11.40
2022-11-05T08:44:29.517Z,12.34
2022-11-05T08:47:00.992Z,12.09
2022-11-05T08:49:30.217Z,12.48
2022-11-05T08:51:59.005Z,12.34
2022-11-05T08:54:27.756Z,11.66
2022-11-05T08:56:57.098Z,12.11
2022-11-05T08:59:27.420Z,12.02
2022-11-05T09:01:58.470Z,11.58
2022-11-05T09:04:31.447Z,11.84
2022-11-05T09:07:06.572Z,12.23
2022-11-05T09:09:40.264Z,12.53
2022-11-05T09:12:18.854Z,11.98
2022-11-05T09:22:04.932Z,12.13
2022-11-05T09:24:36.499Z,12.03
2022-11-05T09:27:05.275Z,12.26
2022-11-05T09:29:33.550Z,11.98
2022-11-05T09:32:01.840Z,12.44
2022-11-05T09:34:30.306Z,12.06
2022-11-05T09:36:59.021Z,12.34
2022-11-05T09:39:28.737Z,12.23
2022-11-05T09:42:01.597Z,12.20
2022-11-05T09:44:35.035Z,12.59
2022-11-05T09:47:06.294Z,11.95
2022-11-05T09:49:40.110Z,12.05
2022-11-05T09:53:03.521Z,12.07
2022-11-05T09:55:35.577Z,12.34
2022-11-05T09:58:06.320Z,12.16
2022-11-05T10:00:35.486Z,12.29
2022-11-05T10:03:06.575Z,12.38
2022-11-05T10:05:36.635Z,12.67
2022-11-05T10:08:17.076Z,12.63
2022-11-05T10:10:49.989Z,12.50
2022-11-05T10:13:24.806Z,12.36
2022-11-05T10:15:59.530Z,12.35
2022-11-05T10:18:32.018Z,12.61
2022-11-05T10:21:00.632Z,12.34
2022-11-05T10:23:30.744Z,12.69
2022-11-05T10:26:03.149Z,12.44
2022-11-05T10:28:35.516Z,12.42
2022-11-05T10:31:07.579Z,12.08
2022-11-05T10:33:42.744Z,12.62
2022-11-05T10:36:15.454Z,12.60
2022-11-05T10:45:27.241Z,13.01
2022-11-05T10:48:05.926Z,12.63
2022-11-05T10:50:34.297Z,12.74
2022-11-05T10:53:04.894Z,12.50
2022-11-05T10:55:36.018Z,12.65
2022-11-05T10:58:12.935Z,12.58
2022-11-05T11:00:44.164Z,12.88
2022-11-05T11:03:32.269Z,12.86
2022-11-05T11:06:01.598Z,13.02
2022-11-05T11:08:29.954Z,13.36
2022-11-05T11:11:00.834Z,13.17
2022-11-05T11:13:30.804Z,13.68
2022-11-05T11:16:16.400Z,13.21
2022-11-05T11:18:45.147Z,13.48
2022-11-05T11:21:15.359Z,13.25
2022-11-05T11:23:45.072Z,12.86
2022-11-05T11:26:14.621Z,13.36
2022-11-05T11:28:47.540Z,13.00
2022-11-05T11:53:42.404Z,13.20
2022-11-05T11:56:19.971Z,13.21
2022-11-05T11:58:49.851Z,13.35
2022-11-05T12:01:43.425Z,13.41
2022-11-05T12:04:22.755Z,13.06
2022-11-05T12:06:58.379Z,13.36
2022-11-05T12:09:33.799Z,13.81
2022-11-05T12:12:06.042Z,13.81
2022-11-05T12:14:43.683Z,13.86
2022-11-05T12:17:36.778Z,13.74
2022-11-05T12:20:18.351Z,13.80
2022-11-05T12:23:15.170Z,13.90
2022-11-05T12:25:48.456Z,14.12
2022-11-05T12:28:36.244Z,14.46
2022-11-05T12:31:11.466Z,13.88
2022-11-05T12:33:45.480Z,14.21
2022-11-05T12:36:22.510Z,14.35
2022-11-05T12:39:23.805Z,13.71
2022-11-05T12:41:57.748Z,13.67
2022-11-05T12:44:48.582Z,13.34
2022-11-05T12:47:33.751Z,13.36
2022-11-05T12:50:12.335Z,13.62
2022-11-05T12:53:11.612Z,13.47
2022-11-05T12:55:47.151Z,14.05
2022-11-05T12:58:22.143Z,13.75
2022-11-05T13:00:54.461Z,13.28
2022-11-05T13:03:28.787Z,13.15
2022-11-05T13:06:05.899Z,13.35
2022-11-05T13:08:39.925Z,13.01
2022-11-05T13:11:15.975Z,13.18
2022-11-05T13:13:49.706Z,13.05
2022-11-05T13:16:24.762Z,13.21
2022-11-05T13:18:56.021Z,13.12
2022-11-05T13:21:29.175Z,12.83
2022-11-05T13:24:02.960Z,12.97
2022-11-05T13:26:36.942Z,12.94
2022-11-05T13:29:10.151Z,13.06
2022-11-05T13:31:41.772Z,12.74
2022-11-05T13:34:12.969Z,12.55
2022-11-05T13:37:06.888Z,12.97
2022-11-05T13:39:38.340Z,12.86
2022-11-05T13:42:44.648Z,12.80
2022-11-05T13:45:49.937Z,12.98
2022-11-05T13:48:59.499Z,12.71
2022-11-05T13:51:49.309Z,12.48
2022-11-05T13:54:51.631Z,12.72
2022-11-05T13:57:39.198Z,12.65
2022-11-05T14:00:13.464Z,12.42
2022-11-05T14:02:46.071Z,12.72
2022-11-05T14:05:26.431Z,12.58
2022-11-05T14:08:35.367Z,12.56
2022-11-05T14:15:54.035Z,12.92
2022-11-05T14:18:45.923Z,13.01
2022-11-05T14:24:43.237Z,12.65
2022-11-05T14:27:43.761Z,12.54
2022-11-05T14:34:57.106Z,12.61
2022-11-05T14:37:29.684Z,12.75
2022-11-05T14:40:19.460Z,12.79
2022-11-05T14:47:34.292Z,12.63
2022-11-05T14:54:01.709Z,12.56
2022-11-05T14:56:56.651Z,12.42
2022-11-05T15:04:53.973Z,12.35
2022-11-05T15:07:43.375Z,12.33
2022-11-05T15:10:16.217Z,12.25
2022-11-05T15:13:09.258Z,12.51
2022-11-05T15:18:58.473Z,12.07
2022-11-05T15:21:29.856Z,11.71
2022-11-05T15:23:59.407Z,11.69
2022-11-05T15:26:31.938Z,11.96
2022-11-05T15:29:02.708Z,11.75
2022-11-05T15:31:35.869Z,11.89
2022-11-05T15:35:17.985Z,11.92
2022-11-05T15:37:53.594Z,11.54
2022-11-05T15:40:29.092Z,11.59
2022-11-05T15:43:21.146Z,11.56
2022-11-05T15:50:15.007Z,11.50
2022-11-05T16:37:12.097Z,10.93
2022-11-05T16:39:44.536Z,11.18
2022-11-05T16:42:42.142Z,11.26
2022-11-05T16:45:16.356Z,11.03
2022-11-05T16:47:47.203Z,11.10
2022-11-05T16:54:25.579Z,11.08
2022-11-05T16:56:59.394Z,11.19
2022-11-05T16:59:31.362Z,10.91
2022-11-05T17:02:02.025Z,11.08
2022-11-05T17:04:35.095Z,10.62
2022-11-05T17:07:07.739Z,10.65
2022-11-05T17:09:41.212Z,10.61
2022-11-05T17:12:15.081Z,10.89
2022-11-05T17:14:47.121Z,10.99
2022-11-05T17:17:18.115Z,10.68
2022-11-05T17:19:51.109Z,10.57
2022-11-05T17:22:26.396Z,10.52
2022-11-05T17:25:00.056Z,10.80
2022-11-05T17:27:33.712Z,10.75
2022-11-05T17:30:04.513Z,10.59
2022-11-05T17:32:39.375Z,10.63
2022-11-05T17:35:19.855Z,10.80
2022-11-05T17:37:54.558Z,10.87
2022-11-05T17:44:19.025Z,10.40
2022-11-05T17:46:50.196Z,10.58
2022-11-05T17:49:21.343Z,10.47
2022-11-05T17:51:53.852Z,10.33
2022-11-05T17:54:24.469Z,10.34
2022-11-05T17:57:00.330Z,10.38
2022-11-05T17:59:32.631Z,10.08
2022-11-05T18:02:03.645Z,10.55
2022-11-05T18:04:34.221Z,10.17
2022-11-05T18:07:04.407Z,10.28
2022-11-05T18:09:34.708Z,10.47
2022-11-05T18:12:06.374Z,10.35
2022-11-05T18:14:38.974Z,10.48
2022-11-05T18:17:10.234Z,10.31
2022-11-05T18:19:41.094Z,10.16
2022-11-05T18:22:12.252Z,10.35
2022-11-05T18:24:42.705Z,10.24
2022-11-05T18:27:13.413Z,10.12
2022-11-05T18:29:46.604Z,10.27
2022-11-05T18:32:20.407Z,10.16
2022-11-05T18:35:17.304Z,10.14
2022-11-05T18:37:47.337Z,10.00
2022-11-05T18:40:17.796Z,9.96
2022-11-05T18:42:49.564Z,10.11
2022-11-05T18:45:23.328Z,10.33
2022-11-05T18:47:59.490Z,10.34
2022-11-05T18:50:33.251Z,10.26
2022-11-05T18:53:04.161Z,9.94
2022-11-05T18:55:34.714Z,9.75
2022-11-05T18:58:08.654Z,9.68
2022-11-05T19:00:42.859Z,9.76
2022-11-05T19:03:13.877Z,9.26
2022-11-05T19:05:43.973Z,9.07
2022-11-05T19:08:16.363Z,8.60
2022-11-05T19:11:13.418Z,8.38
2022-11-05T19:13:44.099Z,8.19
2022-11-05T19:16:19.273Z,8.11
2022-11-05T19:19:39.720Z,7.82
2022-11-05T19:26:41.955Z,7.65
2022-11-05T19:29:13.502Z,7.49
2022-11-05T19:31:45.118Z,7.35
2022-11-05T19:34:15.530Z,7.49
2022-11-05T19:36:46.786Z,7.38
2022-11-05T19:39:20.020Z,7.13
2022-11-05T19:41:57.636Z,6.93
2022-11-05T19:44:36.381Z,6.82
2022-11-05T19:47:09.882Z,6.71
2022-11-05T19:49:40.904Z,6.63
2022-11-05T19:52:10.907Z,6.58
2022-11-05T19:54:41.730Z,6.67
2022-11-05T19:57:13.798Z,6.68
2022-11-05T19:59:45.390Z,6.60
2022-11-05T20:02:17.468Z,6.77
2022-11-05T20:04:49.964Z,6.68
2022-11-05T20:07:21.834Z,6.70
2022-11-05T20:09:52.853Z,6.70
2022-11-05T20:12:26.602Z,7.04
2022-11-05T20:15:48.929Z,6.73
2022-11-05T20:18:21.026Z,6.37
2022-11-05T20:20:51.886Z,6.48
2022-11-05T20:23:23.005Z,6.50
2022-11-05T20:27:13.456Z,6.50
2022-11-05T20:29:46.642Z,6.27
2022-11-05T20:32:17.471Z,6.43
2022-11-05T20:39:22.019Z,6.18
2022-11-05T20:41:57.237Z,5.97
2022-11-05T20:44:27.461Z,6.12
2022-11-05T20:46:57.466Z,6.15
2022-11-05T20:49:30.237Z,6.28
2022-11-05T20:52:00.868Z,6.09
2022-11-05T20:54:33.514Z,6.07
2022-11-05T20:57:06.121Z,6.23
2022-11-05T20:59:38.358Z,5.89
2022-11-05T21:02:07.951Z,6.00
2022-11-05T21:04:38.589Z,5.88
2022-11-05T21:07:10.146Z,5.97
2022-11-05T21:10:08.862Z,6.10
2022-11-05T21:12:38.595Z,6.29
2022-11-05T21:15:10.647Z,6.94
2022-11-05T21:17:46.111Z,7.62
2022-11-05T21:20:16.161Z,7.48
2022-11-05T21:22:45.992Z,7.29
2022-11-05T21:25:19.176Z,7.20
2022-11-05T21:27:48.632Z,7.02
2022-11-05T21:34:38.969Z,7.08
2022-11-05T21:37:09.830Z,7.45
2022-11-05T21:40:29.490Z,7.32
2022-11-05T21:47:35.383Z,6.81
2022-11-05T21:58:46.207Z,6.63
2022-11-05T22:01:15.271Z,6.36
2022-11-05T22:03:51.073Z,6.51
2022-11-05T22:07:35.591Z,6.31
2022-11-05T22:10:06.085Z,6.47
2022-11-05T22:12:45.395Z,6.77
2022-11-05T22:24:30.700Z,7.27
2022-11-05T22:26:59.710Z,7.11
2022-11-05T22:29:29.744Z,6.58
2022-11-05T22:32:00.092Z,6.97
2022-11-05T22:34:29.676Z,6.87
2022-11-05T22:37:01.898Z,6.80
2022-11-05T22:39:32.997Z,6.55
2022-11-05T22:42:07.230Z,6.87
2022-11-05T22:45:23.140Z,6.74
2022-11-05T22:47:52.914Z,6.61
2022-11-05T22:50:28.254Z,7.02
2022-11-05T22:52:57.781Z,7.14
2022-11-05T22:55:46.211Z,7.36
2022-11-05T22:58:18.950Z,7.23
2022-11-05T23:00:48.270Z,7.34
2022-11-05T23:03:18.546Z,7.74
2022-11-05T23:06:39.279Z,6.85
2022-11-05T23:09:29.600Z,6.68
2022-11-05T23:12:32.697Z,7.13
2022-11-05T23:19:54.646Z,6.94
2022-11-05T23:22:44.572Z,6.90
2022-11-05T23:25:17.211Z,6.79
2022-11-05T23:27:48.632Z,6.73
2022-11-05T23:30:20.953Z,7.01
2022-11-05T23:32:51.378Z,6.65
2022-11-05T23:35:46.324Z,6.81
2022-11-05T23:38:36.083Z,6.92
2022-11-05T23:41:23.009Z,6.66
2022-11-05T23:44:10.468Z,6.78
2022-11-05T23:47:02.895Z,6.42
2022-11-05T23:49:34.151Z,6.33
2022-11-05T23:52:04.940Z,6.37
2022-11-05T23:54:36.612Z,6.47
2022-11-05T23:57:57.475Z,6.90
